createdAt,value
2022-12-25T00:00:02.316Z,95.164
2022-12-25T00:07:01.863Z,95.261
2022-12-25T00:14:01.429Z,95.261
2022-12-25T00:21:02.072Z,95.514
2022-12-25T00:28:02.071Z,95.546
2022-12-25T00:35:01.536Z,95.694
2022-12-25T00:42:01.418Z,95.694
2022-12-25T00:49:01.513Z,95.878
2022-12-25T00:56:01.975Z,95.894
2022-12-25T01:00:01.505Z,95.894
2022-12-25T01:07:02.018Z,95.876
2022-12-25T01:14:01.691Z,95.783
2022-12-25T01:21:01.548Z,95.783
2022-12-25T01:28:01.420Z,95.758
2022-12-25T01:35:01.993Z,95.766
2022-12-25T01:42:01.911Z,95.766
2022-12-25T01:49:02.571Z,95.664
2022-12-25T01:56:01.934Z,95.718
2022-12-25T02:00:02.577Z,95.718
2022-12-25T02:07:01.912Z,95.901
2022-12-25T02:14:01.477Z,96.079
2022-12-25T02:21:01.702Z,96.136
2022-12-25T02:28:01.587Z,96.136
2022-12-25T02:35:02.035Z,96.121
2022-12-25T02:42:02.179Z,96.154
2022-12-25T02:49:01.713Z,96.154
2022-12-25T02:56:01.724Z,96.1
2022-12-25T03:00:02.311Z,96.01
2022-12-25T03:07:01.850Z,96.01
2022-12-25T03:14:01.897Z,96.034
2022-12-25T03:21:01.738Z,96.141
2022-12-25T03:28:01.854Z,96.141
2022-12-25T03:35:02.047Z,96.168
2022-12-25T03:42:02.133Z,96.185
2022-12-25T03:49:02.093Z,96.201
2022-12-25T03:56:02.143Z,96.201
2022-12-25T04:00:01.750Z,96.278
2022-12-25T04:07:02.081Z,96.408
2022-12-25T04:14:01.886Z,96.408
2022-12-25T04:21:01.437Z,96.489
2022-12-25T04:28:01.482Z,96.283
2022-12-25T04:35:02.061Z,96.283
2022-12-25T04:42:01.358Z,96.445
2022-12-25T04:49:02.235Z,96.311
2022-12-25T04:56:02.052Z,96.284
2022-12-25T05:00:01.651Z,96.284
2022-12-25T05:07:01.881Z,96.337
2022-12-25T05:14:01.987Z,96.337
2022-12-25T05:21:01.617Z,96.31
2022-12-25T05:28:01.578Z,96.19
2022-12-25T05:35:01.705Z,96.13
2022-12-25T05:42:02.290Z,96.13
2022-12-25T05:49:01.555Z,95.913
2022-12-25T05:56:01.711Z,95.865
2022-12-25T06:00:02.328Z,95.865
2022-12-25T06:07:01.308Z,95.882
2022-12-25T06:14:01.671Z,95.952
2022-12-25T06:21:02.136Z,95.952
2022-12-25T06:28:01.489Z,96.049
2022-12-25T06:35:01.815Z,96.3
2022-12-25T06:42:02.022Z,96.437
2022-12-25T06:49:01.646Z,96.437
2022-12-25T06:56:01.407Z,96.437
2022-12-25T07:00:02.011Z,96.437
2022-12-25T07:07:08.037Z,96.303
2022-12-25T07:14:01.743Z,96.118
2022-12-25T07:21:02.119Z,95.941
2022-12-25T07:28:02.217Z,95.941
2022-12-25T07:35:01.584Z,95.751
2022-12-25T07:42:01.358Z,95.628
2022-12-25T07:49:01.831Z,95.628
2022-12-25T07:56:01.870Z,95.45
2022-12-25T08:00:02.608Z,95.381
2022-12-25T08:07:02.050Z,95.381
2022-12-25T08:14:01.780Z,95.417
2022-12-25T08:21:02.039Z,95.438
2022-12-25T08:28:01.413Z,95.47
2022-12-25T08:35:02.041Z,95.47
2022-12-25T08:42:01.981Z,95.32
2022-12-25T08:49:02.097Z,95.592
2022-12-25T08:56:01.345Z,95.592
2022-12-25T09:00:01.910Z,95.649
2022-12-25T09:07:01.469Z,95.791
2022-12-25T09:14:01.462Z,95.791
2022-12-25T09:21:01.391Z,96.572
2022-12-25T09:28:01.877Z,97.091
2022-12-25T09:35:01.824Z,97.091
2022-12-25T09:42:02.036Z,97.517
2022-12-25T09:49:01.863Z,98.233
2022-12-25T09:56:02.157Z,99.074
2022-12-25T10:00:01.715Z,99.074
2022-12-25T10:07:02.004Z,99.67
2022-12-25T10:14:02.103Z,99.67
2022-12-25T10:21:02.179Z,100
2022-12-25T10:28:02.021Z,100
2022-12-25T10:35:02.264Z,100
2022-12-25T10:42:02.063Z,100
2022-12-25T10:49:01.775Z,100
2022-12-25T10:56:01.363Z,100
2022-12-25T11:00:01.962Z,100
2022-12-25T11:07:01.686Z,100
2022-12-25T11:14:02.040Z,100
2022-12-25T11:21:01.354Z,100
2022-12-25T11:28:01.416Z,100
2022-12-25T11:35:02.186Z,100
2022-12-25T11:42:02.080Z,100
2022-12-25T11:49:02.157Z,100
2022-12-25T11:56:01.470Z,100
2022-12-25T12:00:02.101Z,100
2022-12-25T12:07:01.346Z,100
2022-12-25T12:14:02.247Z,100
2022-12-25T12:21:01.990Z,100
2022-12-25T12:28:05.704Z,100
2022-12-25T12:35:02.312Z,100
2022-12-25T12:42:02.287Z,100
2022-12-25T12:49:02.161Z,100
2022-12-25T12:56:02.278Z,100
2022-12-25T13:00:08.620Z,100
2022-12-25T13:07:01.966Z,100
2022-12-25T13:14:02.172Z,100
2022-12-25T13:21:01.718Z,100
2022-12-25T13:28:01.340Z,100
2022-12-25T13:35:01.736Z,100
2022-12-25T13:42:02.088Z,100
2022-12-25T13:49:01.533Z,100
2022-12-25T13:56:01.548Z,100
2022-12-25T14:00:02.236Z,100
2022-12-25T14:07:02.104Z,100
2022-12-25T14:14:01.443Z,100
2022-12-25T14:21:01.593Z,100
2022-12-25T14:28:01.799Z,100
2022-12-25T14:35:02.640Z,100
2022-12-25T14:42:01.978Z,100
2022-12-25T14:49:01.349Z,100
2022-12-25T14:56:02.071Z,100
2022-12-25T15:00:01.678Z,100
2022-12-25T15:07:02.194Z,100
2022-12-25T15:14:02.188Z,100
2022-12-25T15:21:01.397Z,100
2022-12-25T15:28:01.450Z,100
2022-12-25T15:35:01.870Z,100
2022-12-25T15:42:02.057Z,100
2022-12-25T15:49:02.128Z,100
2022-12-25T15:56:02.139Z,100
2022-12-25T16:00:01.873Z,100
2022-12-25T16:07:01.377Z,100
2022-12-25T16:14:01.794Z,100
2022-12-25T16:21:01.730Z,100
2022-12-25T16:28:01.465Z,100
2022-12-25T16:35:02.434Z,100
2022-12-25T16:42:01.732Z,100
2022-12-25T16:49:01.966Z,100
2022-12-25T16:56:01.385Z,100
2022-12-25T17:00:01.918Z,100
2022-12-25T17:07:01.504Z,100
2022-12-25T17:14:01.447Z,100
2022-12-25T17:21:02.208Z,100
2022-12-25T17:28:01.711Z,100
2022-12-25T17:35:01.584Z,100
2022-12-25T17:42:01.348Z,100
2022-12-25T17:49:01.845Z,100
2022-12-25T17:56:02.167Z,100
2022-12-25T18:00:01.717Z,100
2022-12-25T18:07:02.013Z,100
2022-12-25T18:14:01.757Z,100
2022-12-25T18:21:02.233Z,100
2022-12-25T18:28:02.868Z,100
2022-12-25T18:35:02.291Z,100
2022-12-25T18:42:01.466Z,100
2022-12-25T18:49:01.485Z,100
2022-12-25T18:56:01.529Z,100
2022-12-25T19:00:02.122Z,100
2022-12-25T19:07:01.471Z,100
2022-12-25T19:14:01.387Z,100
2022-12-25T19:21:02.056Z,100
2022-12-25T19:28:01.329Z,100
2022-12-25T19:35:02.196Z,100
2022-12-25T19:42:01.546Z,100
2022-12-25T19:49:01.959Z,100
2022-12-25T19:56:01.516Z,100
2022-12-25T20:00:02.155Z,100
2022-12-25T20:07:01.679Z,100
2022-12-25T20:14:01.640Z,100
2022-12-25T20:21:01.921Z,100
2022-12-25T20:28:01.732Z,100
2022-12-25T20:35:02.055Z,100
2022-12-25T20:42:02.617Z,100
2022-12-25T20:49:02.161Z,100
2022-12-25T20:56:01.998Z,100
2022-12-25T21:00:01.583Z,100
2022-12-25T21:07:02.222Z,100
2022-12-25T21:14:01.555Z,100
2022-12-25T21:21:01.368Z,100
2022-12-25T21:28:01.947Z,100
2022-12-25T21:35:01.930Z,100
2022-12-25T21:42:02.192Z,100
2022-12-25T21:49:02.346Z,100
2022-12-25T21:56:01.394Z,100
2022-12-25T22:00:01.975Z,100
2022-12-25T22:07:02.087Z,100
2022-12-25T22:14:02.178Z,100
2022-12-25T22:21:02.115Z,100
2022-12-25T22:28:01.378Z,100
2022-12-25T22:35:02.131Z,100
2022-12-25T22:42:01.623Z,100
2022-12-25T22:49:01.878Z,100
2022-12-25T22:56:01.552Z,100
2022-12-25T23:00:02.447Z,100
2022-12-25T23:07:01.844Z,100
2022-12-25T23:14:02.269Z,100
2022-12-25T23:21:02.057Z,100
2022-12-25T23:28:01.352Z,100
2022-12-25T23:35:02.063Z,100
2022-12-25T23:42:02.214Z,100
2022-12-25T23:49:02.183Z,100
2022-12-25T23:56:02.257Z,100
